CMA CGM Volga — 5BJR2 — position and weather

sailwx.info

Track history (hours):
 
Tides and Currents Weather Stations Pressure Air Temp Water Temp Dewpoint Dewpoint Depression Visibility Wind Speed Wind Dir Waves Ship Positions

CMA CGM Volga

Last reported at 2016-Feb-10 01:33 UTC. Time now 2016-Feb-14 03:55 UTC.
Position N 54°60' E 019°31'.

Length 184 m; draft 9.8 m.

Type: Ship (hazmat cat A). MMSI: 212456000.

Date/timePositionNaut miles runAvg speedWind from/ knotsBaromVisibWave heightAir tempDewpointWater temp
2016-Feb-10 01:33N 54°60' E 019°31'1414.1
2016-Feb-10 00:33N 54°50' E 019°13'1313.1
2016-Feb-09 23:33N 54°37' E 019°07'1313.4
2016-Feb-09 22:33N 54°26' E 018°55'8 7.7
2016-Feb-09 21:33N 54°23' E 018°43'0 0.1
2016-Feb-09 20:32N 54°23' E 018°43'0 0.0
2016-Feb-09 19:32N 54°23' E 018°43'0 0.0
2016-Feb-09 18:32N 54°23' E 018°43'0 0.0
2016-Feb-09 17:32N 54°23' E 018°43'0 0.0
2016-Feb-09 16:32N 54°23' E 018°43'0 0.0
2016-Feb-09 15:32N 54°23' E 018°43'0 0.0
2016-Feb-09 14:32N 54°23' E 018°43'0 0.0
2016-Feb-09 13:32N 54°23' E 018°43'0 0.0
2016-Feb-09 12:32N 54°23' E 018°43'0 0.0
2016-Feb-09 11:32N 54°23' E 018°43'0 0.0
2016-Feb-09 10:32N 54°23' E 018°43'0 0.0
2016-Feb-09 09:32N 54°23' E 018°43'0 0.0
2016-Feb-09 08:32N 54°23' E 018°43'0 0.0
2016-Feb-09 07:32N 54°23' E 018°43'0 0.0
2016-Feb-09 06:32N 54°23' E 018°43'0 0.0
2016-Feb-09 05:32N 54°23' E 018°43'0 0.0
2016-Feb-09 04:32N 54°23' E 018°43'0 0.0
2016-Feb-09 03:32N 54°23' E 018°43'0 0.0
2016-Feb-09 02:32N 54°23' E 018°43'0 0.0
2016-Feb-09 01:32N 54°23' E 018°43'0 0.0
2016-Feb-09 00:28N 54°23' E 018°43'0 0.0
2016-Feb-08 23:32N 54°23' E 018°43'0 0.0
2016-Feb-08 22:32N 54°23' E 018°43'3 3.2
2016-Feb-08 21:33N 54°25' E 018°47'3 2.8
2016-Feb-08 20:31N 54°28' E 018°49'0 0.0
2016-Feb-08 19:31N 54°28' E 018°49'0 0.0
2016-Feb-08 18:31N 54°28' E 018°49'0 0.0
2016-Feb-08 17:28N 54°28' E 018°49'0 0.0
2016-Feb-08 16:32N 54°28' E 018°49'0 0.0
2016-Feb-08 15:31N 54°28' E 018°49'0 0.0
2016-Feb-08 14:31N 54°28' E 018°49'0 0.0
2016-Feb-08 13:31N 54°28' E 018°49'0 0.0
2016-Feb-08 12:31N 54°28' E 018°49'0 0.0
2016-Feb-08 11:31N 54°28' E 018°49'0 0.0
2016-Feb-08 10:31N 54°28' E 018°49'0 0.0
2016-Feb-08 09:31N 54°28' E 018°49'0 0.0
2016-Feb-08 08:28N 54°28' E 018°49'0 0.0
2016-Feb-08 07:31N 54°28' E 018°49'0 0.0
2016-Feb-08 06:31N 54°28' E 018°49'0 0.0
2016-Feb-08 05:31N 54°28' E 018°49'0 0.0
2016-Feb-08 04:28N 54°28' E 018°49'0 0.1
2016-Feb-08 03:31N 54°28' E 018°49'0 0.0
2016-Feb-08 02:31N 54°28' E 018°49'0 0.0
2016-Feb-08 01:31N 54°28' E 018°49'0 0.0
2016-Feb-08 00:31N 54°28' E 018°49'0 0.0
2016-Feb-07 23:31N 54°28' E 018°49'0 0.0
2016-Feb-07 22:28N 54°28' E 018°49'0 0.0
2016-Feb-07 21:31N 54°28' E 018°49'0 0.0
2016-Feb-07 20:31N 54°28' E 018°49'0 0.0
2016-Feb-07 19:31N 54°28' E 018°49'0 0.0
2016-Feb-07 18:31N 54°28' E 018°49'0 0.0
2016-Feb-07 17:31N 54°28' E 018°49'0 0.0
2016-Feb-07 16:31N 54°28' E 018°49'0 0.0
2016-Feb-07 15:31N 54°28' E 018°49'0 0.0
2016-Feb-07 14:31N 54°28' E 018°49'0 0.0
2016-Feb-07 13:31N 54°28' E 018°49'0 0.0
2016-Feb-07 12:31N 54°28' E 018°49'0 0.0
2016-Feb-07 11:31N 54°28' E 018°49'0 0.0
2016-Feb-07 10:28N 54°28' E 018°49'0 0.0
2016-Feb-07 09:31N 54°28' E 018°49'0 0.0
2016-Feb-07 08:31N 54°28' E 018°49'0 0.0
2016-Feb-07 07:31N 54°28' E 018°49'0 0.0
2016-Feb-07 06:31N 54°28' E 018°49'0 0.0
2016-Feb-07 05:31N 54°28' E 018°49'0 0.0
2016-Feb-07 04:31N 54°28' E 018°49'0 0.0
2016-Feb-07 03:28N 54°28' E 018°49'0 0.1
2016-Feb-07 02:32N 54°28' E 018°49'5 5.6
2016-Feb-07 01:33N 54°29' E 018°58'1211.6
2016-Feb-07 00:33N 54°41' E 019°03'1211.9
2016-Feb-06 23:33N 54°50' E 019°15'13 0.4
2016-Feb-05 17:27N 54°60' E 019°31'1719.3
2016-Feb-05 16:34N 54°45' E 019°15'1919.0
2016-Feb-05 15:33N 54°28' E 019°01'1111.5
2016-Feb-05 14:33N 54°23' E 018°43'0 0.0
2016-Feb-05 13:32N 54°23' E 018°43'0 0.0
2016-Feb-05 12:31N 54°23' E 018°43'0 0.0
2016-Feb-05 11:32N 54°23' E 018°43'0 0.0
2016-Feb-05 10:32N 54°23' E 018°43'0 0.0
2016-Feb-05 09:32N 54°23' E 018°43'0 0.0
2016-Feb-05 08:31N 54°23' E 018°43'0 0.0
2016-Feb-05 07:32N 54°23' E 018°43'0 0.0
2016-Feb-05 06:32N 54°23' E 018°43'0 0.0
2016-Feb-05 05:31N 54°23' E 018°43'0 0.0
2016-Feb-05 04:32N 54°23' E 018°43'0 0.0
2016-Feb-05 03:31N 54°23' E 018°43'0 0.0
2016-Feb-05 02:31N 54°23' E 018°43'0 0.0
2016-Feb-05 01:32N 54°23' E 018°43'0 0.0
2016-Feb-05 00:32N 54°23' E 018°43'0 0.0
2016-Feb-04 23:31N 54°23' E 018°43'0 0.0
2016-Feb-04 22:32N 54°23' E 018°43'1 0.7
2016-Feb-04 21:34N 54°24' E 018°44'8 8.0
2016-Feb-04 20:34N 54°27' E 018°56'1313.1
2016-Feb-04 19:33N 54°39' E 019°03'1313.1
2016-Feb-04 18:33N 54°52' E 019°10'  
Track history (hours):
 
Tides and Currents Weather Stations Pressure Air Temp Water Temp Dewpoint Dewpoint Depression Visibility Wind Speed Wind Dir Waves Ship Positions

CMA CGM Volga

Last reported at 2016-Feb-10 01:33 UTC. Time now 2016-Feb-14 03:55 UTC.
Position N 54°60' E 019°31'.

Length 184 m; draft 9.8 m.

Type: Ship (hazmat cat A). MMSI: 212456000.

Date/timePositionNaut miles runAvg speedWind from/ knotsBaromVisibWave heightAir tempDewpointWater temp
2016-Feb-10 01:33N 54°60' E 019°31'1414.1
2016-Feb-10 00:33N 54°50' E 019°13'1313.1
2016-Feb-09 23:33N 54°37' E 019°07'1313.4
2016-Feb-09 22:33N 54°26' E 018°55'8 7.7
2016-Feb-09 21:33N 54°23' E 018°43'0 0.1
2016-Feb-09 20:32N 54°23' E 018°43'0 0.0
2016-Feb-09 19:32N 54°23' E 018°43'0 0.0
2016-Feb-09 18:32N 54°23' E 018°43'0 0.0
2016-Feb-09 17:32N 54°23' E 018°43'0 0.0
2016-Feb-09 16:32N 54°23' E 018°43'0 0.0
2016-Feb-09 15:32N 54°23' E 018°43'0 0.0
2016-Feb-09 14:32N 54°23' E 018°43'0 0.0
2016-Feb-09 13:32N 54°23' E 018°43'0 0.0
2016-Feb-09 12:32N 54°23' E 018°43'0 0.0
2016-Feb-09 11:32N 54°23' E 018°43'0 0.0
2016-Feb-09 10:32N 54°23' E 018°43'0 0.0
2016-Feb-09 09:32N 54°23' E 018°43'0 0.0
2016-Feb-09 08:32N 54°23' E 018°43'0 0.0
2016-Feb-09 07:32N 54°23' E 018°43'0 0.0
2016-Feb-09 06:32N 54°23' E 018°43'0 0.0
2016-Feb-09 05:32N 54°23' E 018°43'0 0.0
2016-Feb-09 04:32N 54°23' E 018°43'0 0.0
2016-Feb-09 03:32N 54°23' E 018°43'0 0.0
2016-Feb-09 02:32N 54°23' E 018°43'0 0.0
2016-Feb-09 01:32N 54°23' E 018°43'0 0.0
2016-Feb-09 00:28N 54°23' E 018°43'0 0.0
2016-Feb-08 23:32N 54°23' E 018°43'0 0.0
2016-Feb-08 22:32N 54°23' E 018°43'3 3.2
2016-Feb-08 21:33N 54°25' E 018°47'3 2.8
2016-Feb-08 20:31N 54°28' E 018°49'0 0.0
2016-Feb-08 19:31N 54°28' E 018°49'0 0.0
2016-Feb-08 18:31N 54°28' E 018°49'0 0.0
2016-Feb-08 17:28N 54°28' E 018°49'0 0.0
2016-Feb-08 16:32N 54°28' E 018°49'0 0.0
2016-Feb-08 15:31N 54°28' E 018°49'0 0.0
2016-Feb-08 14:31N 54°28' E 018°49'0 0.0
2016-Feb-08 13:31N 54°28' E 018°49'0 0.0
2016-Feb-08 12:31N 54°28' E 018°49'0 0.0
2016-Feb-08 11:31N 54°28' E 018°49'0 0.0
2016-Feb-08 10:31N 54°28' E 018°49'0 0.0
2016-Feb-08 09:31N 54°28' E 018°49'0 0.0
2016-Feb-08 08:28N 54°28' E 018°49'0 0.0
2016-Feb-08 07:31N 54°28' E 018°49'0 0.0
2016-Feb-08 06:31N 54°28' E 018°49'0 0.0
2016-Feb-08 05:31N 54°28' E 018°49'0 0.0
2016-Feb-08 04:28N 54°28' E 018°49'0 0.1
2016-Feb-08 03:31N 54°28' E 018°49'0 0.0
2016-Feb-08 02:31N 54°28' E 018°49'0 0.0
2016-Feb-08 01:31N 54°28' E 018°49'0 0.0
2016-Feb-08 00:31N 54°28' E 018°49'0 0.0
2016-Feb-07 23:31N 54°28' E 018°49'0 0.0
2016-Feb-07 22:28N 54°28' E 018°49'0 0.0
2016-Feb-07 21:31N 54°28' E 018°49'0 0.0
2016-Feb-07 20:31N 54°28' E 018°49'0 0.0
2016-Feb-07 19:31N 54°28' E 018°49'0 0.0
2016-Feb-07 18:31N 54°28' E 018°49'0 0.0
2016-Feb-07 17:31N 54°28' E 018°49'0 0.0
2016-Feb-07 16:31N 54°28' E 018°49'0 0.0
2016-Feb-07 15:31N 54°28' E 018°49'0 0.0
2016-Feb-07 14:31N 54°28' E 018°49'0 0.0
2016-Feb-07 13:31N 54°28' E 018°49'0 0.0
2016-Feb-07 12:31N 54°28' E 018°49'0 0.0
2016-Feb-07 11:31N 54°28' E 018°49'0 0.0
2016-Feb-07 10:28N 54°28' E 018°49'0 0.0
2016-Feb-07 09:31N 54°28' E 018°49'0 0.0
2016-Feb-07 08:31N 54°28' E 018°49'0 0.0
2016-Feb-07 07:31N 54°28' E 018°49'0 0.0
2016-Feb-07 06:31N 54°28' E 018°49'0 0.0
2016-Feb-07 05:31N 54°28' E 018°49'0 0.0
2016-Feb-07 04:31N 54°28' E 018°49'0 0.0
2016-Feb-07 03:28N 54°28' E 018°49'0 0.1
2016-Feb-07 02:32N 54°28' E 018°49'5 5.6
2016-Feb-07 01:33N 54°29' E 018°58'1211.6
2016-Feb-07 00:33N 54°41' E 019°03'1211.9
2016-Feb-06 23:33N 54°50' E 019°15'13 0.4
2016-Feb-05 17:27N 54°60' E 019°31'1719.3
2016-Feb-05 16:34N 54°45' E 019°15'1919.0
2016-Feb-05 15:33N 54°28' E 019°01'1111.5
2016-Feb-05 14:33N 54°23' E 018°43'0 0.0
2016-Feb-05 13:32N 54°23' E 018°43'0 0.0
2016-Feb-05 12:31N 54°23' E 018°43'0 0.0
2016-Feb-05 11:32N 54°23' E 018°43'0 0.0
2016-Feb-05 10:32N 54°23' E 018°43'0 0.0
2016-Feb-05 09:32N 54°23' E 018°43'0 0.0
2016-Feb-05 08:31N 54°23' E 018°43'0 0.0
2016-Feb-05 07:32N 54°23' E 018°43'0 0.0
2016-Feb-05 06:32N 54°23' E 018°43'0 0.0
2016-Feb-05 05:31N 54°23' E 018°43'0 0.0
2016-Feb-05 04:32N 54°23' E 018°43'0 0.0
2016-Feb-05 03:31N 54°23' E 018°43'0 0.0
2016-Feb-05 02:31N 54°23' E 018°43'0 0.0
2016-Feb-05 01:32N 54°23' E 018°43'0 0.0
2016-Feb-05 00:32N 54°23' E 018°43'0 0.0
2016-Feb-04 23:31N 54°23' E 018°43'0 0.0
2016-Feb-04 22:32N 54°23' E 018°43'1 0.7
2016-Feb-04 21:34N 54°24' E 018°44'8 8.0
2016-Feb-04 20:34N 54°27' E 018°56'1313.1
2016-Feb-04 19:33N 54°39' E 019°03'1313.1
2016-Feb-04 18:33N 54°52' E 019°10'  

Dump ship's entire track history